sensor_id;sensor_type;location;lat;lon;timestamp;P1;durP1;ratioP1;P2;durP2;ratioP2
31210;SDS011;17836;50.948;3.946;2023-11-18T00:01:32;23.08;;;12.48;;
31210;SDS011;17836;50.948;3.946;2023-11-18T00:03:58;19.70;;;11.80;;
31210;SDS011;17836;50.948;3.946;2023-11-18T00:06:23;19.83;;;12.55;;
31210;SDS011;17836;50.948;3.946;2023-11-18T00:08:51;20.60;;;12.50;;
31210;SDS011;17836;50.948;3.946;2023-11-18T00:11:17;17.70;;;11.63;;
31210;SDS011;17836;50.948;3.946;2023-11-18T00:13:43;20.15;;;12.00;;
31210;SDS011;17836;50.948;3.946;2023-11-18T00:16:09;24.67;;;12.23;;
31210;SDS011;17836;50.948;3.946;2023-11-18T00:18:38;19.48;;;13.52;;
31210;SDS011;17836;50.948;3.946;2023-11-18T00:21:04;25.70;;;13.32;;
31210;SDS011;17836;50.948;3.946;2023-11-18T00:23:30;18.77;;;13.73;;
31210;SDS011;17836;50.948;3.946;2023-11-18T00:25:55;20.35;;;13.70;;
31210;SDS011;17836;50.948;3.946;2023-11-18T00:28:21;19.70;;;12.30;;
31210;SDS011;17836;50.948;3.946;2023-11-18T00:30:46;22.95;;;14.55;;
31210;SDS011;17836;50.948;3.946;2023-11-18T00:33:11;23.93;;;14.33;;
31210;SDS011;17836;50.948;3.946;2023-11-18T00:35:36;25.20;;;13.27;;
31210;SDS011;17836;50.948;3.946;2023-11-18T00:38:04;20.52;;;13.05;;
31210;SDS011;17836;50.948;3.946;2023-11-18T00:40:30;23.45;;;13.73;;
31210;SDS011;17836;50.948;3.946;2023-11-18T00:42:55;21.75;;;13.07;;
31210;SDS011;17836;50.948;3.946;2023-11-18T00:45:21;24.60;;;12.77;;
31210;SDS011;17836;50.948;3.946;2023-11-18T00:47:46;22.27;;;11.95;;
31210;SDS011;17836;50.948;3.946;2023-11-18T00:50:11;23.37;;;12.47;;
31210;SDS011;17836;50.948;3.946;2023-11-18T00:52:37;18.02;;;11.45;;
31210;SDS011;17836;50.948;3.946;2023-11-18T00:55:04;17.17;;;11.48;;
31210;SDS011;17836;50.948;3.946;2023-11-18T00:57:31;19.80;;;11.85;;
31210;SDS011;17836;50.948;3.946;2023-11-18T00:59:56;16.00;;;11.67;;
31210;SDS011;17836;50.948;3.946;2023-11-18T01:02:23;19.50;;;11.63;;
31210;SDS011;17836;50.948;3.946;2023-11-18T01:04:48;18.38;;;12.18;;
31210;SDS011;17836;50.948;3.946;2023-11-18T01:07:13;17.57;;;11.97;;
31210;SDS011;17836;50.948;3.946;2023-11-18T01:09:39;19.27;;;11.13;;
31210;SDS011;17836;50.948;3.946;2023-11-18T01:12:04;32.35;;;11.65;;
31210;SDS011;17836;50.948;3.946;2023-11-18T01:14:30;18.17;;;9.88;;
31210;SDS011;17836;50.948;3.946;2023-11-18T02:04:55;14.02;;;11.10;;
31210;SDS011;17836;50.948;3.946;2023-11-18T02:07:20;19.83;;;10.98;;
31210;SDS011;17836;50.948;3.946;2023-11-18T02:09:45;15.60;;;10.70;;
31210;SDS011;17836;50.948;3.946;2023-11-18T02:12:27;14.02;;;9.80;;
31210;SDS011;17836;50.948;3.946;2023-11-18T02:14:54;14.27;;;10.40;;
31210;SDS011;17836;50.948;3.946;2023-11-18T02:20:23;11.45;;;9.32;;
31210;SDS011;17836;50.948;3.946;2023-11-18T02:22:49;14.73;;;8.82;;
31210;SDS011;17836;50.948;3.946;2023-11-18T02:25:15;12.35;;;8.27;;
31210;SDS011;17836;50.948;3.946;2023-11-18T02:27:41;15.45;;;9.15;;
31210;SDS011;17836;50.948;3.946;2023-11-18T02:30:08;13.13;;;7.93;;
31210;SDS011;17836;50.948;3.946;2023-11-18T02:32:39;14.00;;;9.00;;
31210;SDS011;17836;50.948;3.946;2023-11-18T02:37:42;15.73;;;8.88;;
31210;SDS011;17836;50.948;3.946;2023-11-18T02:40:09;13.27;;;8.75;;
31210;SDS011;17836;50.948;3.946;2023-11-18T02:42:39;14.10;;;8.25;;
31210;SDS011;17836;50.948;3.946;2023-11-18T02:45:07;14.93;;;8.48;;
31210;SDS011;17836;50.948;3.946;2023-11-18T02:47:33;14.25;;;8.40;;
31210;SDS011;17836;50.948;3.946;2023-11-18T02:49:58;13.73;;;7.97;;
31210;SDS011;17836;50.948;3.946;2023-11-18T02:52:30;15.43;;;8.18;;
31210;SDS011;17836;50.948;3.946;2023-11-18T02:54:55;16.60;;;9.07;;
31210;SDS011;17836;50.948;3.946;2023-11-18T02:57:20;11.77;;;8.32;;
31210;SDS011;17836;50.948;3.946;2023-11-18T02:59:46;15.35;;;7.97;;
31210;SDS011;17836;50.948;3.946;2023-11-18T03:02:14;15.37;;;8.47;;
31210;SDS011;17836;50.948;3.946;2023-11-18T03:04:40;12.88;;;7.95;;
31210;SDS011;17836;50.948;3.946;2023-11-18T03:07:09;17.38;;;8.95;;
31210;SDS011;17836;50.948;3.946;2023-11-18T03:09:34;12.85;;;8.63;;
31210;SDS011;17836;50.948;3.946;2023-11-18T03:12:01;15.57;;;8.25;;
31210;SDS011;17836;50.948;3.946;2023-11-18T03:14:26;13.27;;;7.80;;
31210;SDS011;17836;50.948;3.946;2023-11-18T03:16:51;12.43;;;7.80;;
31210;SDS011;17836;50.948;3.946;2023-11-18T03:19:17;17.55;;;7.60;;
31210;SDS011;17836;50.948;3.946;2023-11-18T03:21:42;13.68;;;8.10;;
31210;SDS011;17836;50.948;3.946;2023-11-18T03:24:08;15.15;;;7.30;;
31210;SDS011;17836;50.948;3.946;2023-11-18T03:26:34;11.73;;;6.82;;
31210;SDS011;17836;50.948;3.946;2023-11-18T03:28:59;15.88;;;7.57;;
31210;SDS011;17836;50.948;3.946;2023-11-18T03:31:24;12.60;;;6.27;;
31210;SDS011;17836;50.948;3.946;2023-11-18T03:33:50;12.37;;;6.47;;
31210;SDS011;17836;50.948;3.946;2023-11-18T03:36:15;9.73;;;7.93;;
31210;SDS011;17836;50.948;3.946;2023-11-18T03:38:43;14.25;;;6.63;;
31210;SDS011;17836;50.948;3.946;2023-11-18T03:41:08;15.82;;;7.10;;
31210;SDS011;17836;50.948;3.946;2023-11-18T03:43:33;13.43;;;6.90;;
31210;SDS011;17836;50.948;3.946;2023-11-18T03:46:01;14.02;;;6.32;;
31210;SDS011;17836;50.948;3.946;2023-11-18T03:48:26;12.50;;;6.35;;
31210;SDS011;17836;50.948;3.946;2023-11-18T03:50:53;11.07;;;5.13;;
31210;SDS011;17836;50.948;3.946;2023-11-18T03:53:21;7.73;;;5.00;;
31210;SDS011;17836;50.948;3.946;2023-11-18T03:55:46;15.70;;;5.60;;
31210;SDS011;17836;50.948;3.946;2023-11-18T03:58:12;18.98;;;5.85;;
31210;SDS011;17836;50.948;3.946;2023-11-18T04:00:37;10.60;;;5.13;;
31210;SDS011;17836;50.948;3.946;2023-11-18T04:03:02;13.27;;;5.10;;
31210;SDS011;17836;50.948;3.946;2023-11-18T04:05:28;12.82;;;5.40;;
31210;SDS011;17836;50.948;3.946;2023-11-18T04:07:54;10.40;;;5.40;;
31210;SDS011;17836;50.948;3.946;2023-11-18T04:10:19;15.17;;;5.33;;
31210;SDS011;17836;50.948;3.946;2023-11-18T04:12:45;12.43;;;5.60;;
31210;SDS011;17836;50.948;3.946;2023-11-18T04:15:13;11.15;;;6.70;;
31210;SDS011;17836;50.948;3.946;2023-11-18T04:17:38;13.07;;;5.38;;
31210;SDS011;17836;50.948;3.946;2023-11-18T04:20:04;15.88;;;5.18;;
31210;SDS011;17836;50.948;3.946;2023-11-18T04:22:33;10.73;;;4.97;;
31210;SDS011;17836;50.948;3.946;2023-11-18T04:24:59;12.23;;;4.95;;
31210;SDS011;17836;50.948;3.946;2023-11-18T04:27:24;10.57;;;4.68;;
31210;SDS011;17836;50.948;3.946;2023-11-18T04:29:54;8.45;;;4.03;;
31210;SDS011;17836;50.948;3.946;2023-11-18T04:32:19;13.35;;;5.10;;
31210;SDS011;17836;50.948;3.946;2023-11-18T04:34:44;10.03;;;4.23;;
31210;SDS011;17836;50.948;3.946;2023-11-18T04:37:09;10.73;;;4.83;;
31210;SDS011;17836;50.948;3.946;2023-11-18T04:39:35;10.50;;;5.07;;
31210;SDS011;17836;50.948;3.946;2023-11-18T04:42:02;14.55;;;5.78;;
31210;SDS011;17836;50.948;3.946;2023-11-18T04:44:27;11.38;;;5.10;;
31210;SDS011;17836;50.948;3.946;2023-11-18T04:46:52;10.23;;;4.63;;
31210;SDS011;17836;50.948;3.946;2023-11-18T04:49:20;14.48;;;5.20;;
31210;SDS011;17836;50.948;3.946;2023-11-18T04:51:45;12.77;;;4.50;;
31210;SDS011;17836;50.948;3.946;2023-11-18T04:54:11;9.37;;;5.20;;
31210;SDS011;17836;50.948;3.946;2023-11-18T04:56:36;7.82;;;3.85;;
31210;SDS011;17836;50.948;3.946;2023-11-18T04:59:02;12.45;;;4.90;;
31210;SDS011;17836;50.948;3.946;2023-11-18T05:01:28;13.23;;;4.80;;
31210;SDS011;17836;50.948;3.946;2023-11-18T05:03:53;12.20;;;4.73;;
31210;SDS011;17836;50.948;3.946;2023-11-18T05:06:19;11.65;;;5.78;;
31210;SDS011;17836;50.948;3.946;2023-11-18T05:08:45;14.38;;;4.93;;
31210;SDS011;17836;50.948;3.946;2023-11-18T05:11:10;18.52;;;4.85;;
31210;SDS011;17836;50.948;3.946;2023-11-18T05:13:35;15.73;;;4.93;;
31210;SDS011;17836;50.948;3.946;2023-11-18T05:16:05;11.05;;;4.97;;
31210;SDS011;17836;50.948;3.946;2023-11-18T05:18:33;10.50;;;4.90;;
31210;SDS011;17836;50.948;3.946;2023-11-18T05:21:01;16.67;;;5.97;;
31210;SDS011;17836;50.948;3.946;2023-11-18T05:23:26;18.33;;;5.20;;
31210;SDS011;17836;50.948;3.946;2023-11-18T05:25:54;13.18;;;5.38;;
31210;SDS011;17836;50.948;3.946;2023-11-18T05:28:21;14.30;;;4.82;;
31210;SDS011;17836;50.948;3.946;2023-11-18T05:30:47;16.23;;;5.00;;
31210;SDS011;17836;50.948;3.946;2023-11-18T05:33:12;13.10;;;5.35;;
31210;SDS011;17836;50.948;3.946;2023-11-18T05:35:45;21.45;;;7.40;;
31210;SDS011;17836;50.948;3.946;2023-11-18T05:38:17;16.65;;;5.30;;
31210;SDS011;17836;50.948;3.946;2023-11-18T05:40:45;16.55;;;6.28;;
31210;SDS011;17836;50.948;3.946;2023-11-18T05:43:27;14.07;;;5.90;;
31210;SDS011;17836;50.948;3.946;2023-11-18T05:45:54;17.08;;;5.60;;
31210;SDS011;17836;50.948;3.946;2023-11-18T05:48:52;19.63;;;6.05;;
31210;SDS011;17836;50.948;3.946;2023-11-18T05:51:22;14.60;;;5.18;;
31210;SDS011;17836;50.948;3.946;2023-11-18T05:53:47;13.32;;;6.05;;
31210;SDS011;17836;50.948;3.946;2023-11-18T05:56:13;16.25;;;5.30;;
31210;SDS011;17836;50.948;3.946;2023-11-18T05:58:38;13.27;;;5.53;;
31210;SDS011;17836;50.948;3.946;2023-11-18T06:01:04;14.85;;;6.07;;
31210;SDS011;17836;50.948;3.946;2023-11-18T06:03:30;14.27;;;5.68;;
31210;SDS011;17836;50.948;3.946;2023-11-18T06:05:55;16.65;;;5.47;;
31210;SDS011;17836;50.948;3.946;2023-11-18T06:08:21;19.55;;;5.75;;
31210;SDS011;17836;50.948;3.946;2023-11-18T06:10:49;15.57;;;5.65;;
31210;SDS011;17836;50.948;3.946;2023-11-18T06:13:16;16.52;;;5.40;;
31210;SDS011;17836;50.948;3.946;2023-11-18T06:15:42;16.67;;;5.85;;
31210;SDS011;17836;50.948;3.946;2023-11-18T06:18:08;16.35;;;4.60;;
31210;SDS011;17836;50.948;3.946;2023-11-18T06:20:34;12.93;;;5.20;;
31210;SDS011;17836;50.948;3.946;2023-11-18T06:23:00;12.95;;;4.63;;
31210;SDS011;17836;50.948;3.946;2023-11-18T06:25:27;13.88;;;4.60;;
31210;SDS011;17836;50.948;3.946;2023-11-18T06:27:54;12.52;;;4.63;;
31210;SDS011;17836;50.948;3.946;2023-11-18T06:30:20;16.80;;;4.13;;
31210;SDS011;17836;50.948;3.946;2023-11-18T06:32:45;10.40;;;4.27;;
31210;SDS011;17836;50.948;3.946;2023-11-18T06:35:12;14.63;;;4.53;;
31210;SDS011;17836;50.948;3.946;2023-11-18T06:37:39;9.38;;;4.22;;
31210;SDS011;17836;50.948;3.946;2023-11-18T06:40:08;9.35;;;3.67;;
31210;SDS011;17836;50.948;3.946;2023-11-18T06:42:41;12.52;;;4.13;;
31210;SDS011;17836;50.948;3.946;2023-11-18T06:45:07;11.52;;;4.60;;
31210;SDS011;17836;50.948;3.946;2023-11-18T06:47:34;13.68;;;3.75;;
31210;SDS011;17836;50.948;3.946;2023-11-18T06:50:01;14.70;;;4.25;;
31210;SDS011;17836;50.948;3.946;2023-11-18T06:52:26;13.18;;;4.97;;
31210;SDS011;17836;50.948;3.946;2023-11-18T06:54:51;12.27;;;3.83;;
31210;SDS011;17836;50.948;3.946;2023-11-18T06:57:18;10.75;;;3.83;;
31210;SDS011;17836;50.948;3.946;2023-11-18T06:59:45;9.13;;;3.57;;
31210;SDS011;17836;50.948;3.946;2023-11-18T07:02:11;11.50;;;3.90;;
31210;SDS011;17836;50.948;3.946;2023-11-18T07:04:36;10.33;;;4.07;;
31210;SDS011;17836;50.948;3.946;2023-11-18T07:07:03;17.20;;;3.85;;
31210;SDS011;17836;50.948;3.946;2023-11-18T07:09:28;11.13;;;4.20;;
31210;SDS011;17836;50.948;3.946;2023-11-18T07:11:55;15.27;;;3.85;;
31210;SDS011;17836;50.948;3.946;2023-11-18T07:14:21;9.50;;;3.55;;
31210;SDS011;17836;50.948;3.946;2023-11-18T07:16:46;14.45;;;3.45;;
31210;SDS011;17836;50.948;3.946;2023-11-18T07:19:12;12.57;;;3.53;;
31210;SDS011;17836;50.948;3.946;2023-11-18T07:21:44;9.63;;;3.30;;
31210;SDS011;17836;50.948;3.946;2023-11-18T07:24:09;13.47;;;4.83;;
31210;SDS011;17836;50.948;3.946;2023-11-18T07:26:35;10.98;;;4.00;;
31210;SDS011;17836;50.948;3.946;2023-11-18T07:29:00;10.52;;;4.90;;
31210;SDS011;17836;50.948;3.946;2023-11-18T07:31:26;12.27;;;4.57;;
31210;SDS011;17836;50.948;3.946;2023-11-18T07:33:51;11.05;;;4.97;;
31210;SDS011;17836;50.948;3.946;2023-11-18T07:36:17;10.05;;;3.88;;
31210;SDS011;17836;50.948;3.946;2023-11-18T07:38:46;14.30;;;4.20;;
31210;SDS011;17836;50.948;3.946;2023-11-18T07:41:12;10.23;;;3.67;;
31210;SDS011;17836;50.948;3.946;2023-11-18T07:43:49;14.85;;;5.00;;
31210;SDS011;17836;50.948;3.946;2023-11-18T07:46:14;10.10;;;4.43;;
31210;SDS011;17836;50.948;3.946;2023-11-18T07:48:40;11.27;;;4.70;;
31210;SDS011;17836;50.948;3.946;2023-11-18T07:51:05;16.27;;;5.15;;
31210;SDS011;17836;50.948;3.946;2023-11-18T07:53:32;11.93;;;4.85;;
31210;SDS011;17836;50.948;3.946;2023-11-18T07:55:57;19.57;;;6.53;;
31210;SDS011;17836;50.948;3.946;2023-11-18T07:58:27;13.60;;;4.72;;
31210;SDS011;17836;50.948;3.946;2023-11-18T08:00:53;14.35;;;5.63;;
31210;SDS011;17836;50.948;3.946;2023-11-18T08:03:19;14.93;;;5.72;;
31210;SDS011;17836;50.948;3.946;2023-11-18T08:05:45;17.45;;;4.88;;
31210;SDS011;17836;50.948;3.946;2023-11-18T08:08:11;12.63;;;6.03;;
31210;SDS011;17836;50.948;3.946;2023-11-18T08:10:37;17.83;;;6.50;;
31210;SDS011;17836;50.948;3.946;2023-11-18T08:13:06;14.40;;;5.57;;
31210;SDS011;17836;50.948;3.946;2023-11-18T08:15:34;16.52;;;6.50;;
31210;SDS011;17836;50.948;3.946;2023-11-18T08:18:00;13.35;;;6.15;;
31210;SDS011;17836;50.948;3.946;2023-11-18T08:20:25;12.38;;;6.65;;
31210;SDS011;17836;50.948;3.946;2023-11-18T08:22:51;14.10;;;6.38;;
31210;SDS011;17836;50.948;3.946;2023-11-18T08:25:16;17.90;;;6.45;;
31210;SDS011;17836;50.948;3.946;2023-11-18T08:27:43;12.80;;;6.70;;
31210;SDS011;17836;50.948;3.946;2023-11-18T08:30:08;19.17;;;6.90;;
31210;SDS011;17836;50.948;3.946;2023-11-18T08:32:40;17.17;;;7.05;;
31210;SDS011;17836;50.948;3.946;2023-11-18T08:35:06;17.40;;;7.53;;
31210;SDS011;17836;50.948;3.946;2023-11-18T08:37:35;22.30;;;7.88;;
31210;SDS011;17836;50.948;3.946;2023-11-18T08:40:02;19.00;;;6.80;;
31210;SDS011;17836;50.948;3.946;2023-11-18T08:42:28;19.63;;;7.88;;
31210;SDS011;17836;50.948;3.946;2023-11-18T08:44:54;16.45;;;8.10;;
31210;SDS011;17836;50.948;3.946;2023-11-18T08:47:20;20.05;;;8.85;;
31210;SDS011;17836;50.948;3.946;2023-11-18T08:49:46;26.05;;;11.13;;
31210;SDS011;17836;50.948;3.946;2023-11-18T08:52:13;25.67;;;11.73;;
31210;SDS011;17836;50.948;3.946;2023-11-18T08:54:39;13.30;;;8.63;;
31210;SDS011;17836;50.948;3.946;2023-11-18T08:57:24;19.98;;;11.23;;
31210;SDS011;17836;50.948;3.946;2023-11-18T08:59:50;24.40;;;9.93;;
31210;SDS011;17836;50.948;3.946;2023-11-18T09:02:19;20.98;;;7.82;;
31210;SDS011;17836;50.948;3.946;2023-11-18T09:04:48;26.52;;;11.05;;
31210;SDS011;17836;50.948;3.946;2023-11-18T09:07:14;36.22;;;15.27;;
31210;SDS011;17836;50.948;3.946;2023-11-18T09:09:40;24.33;;;10.90;;
31210;SDS011;17836;50.948;3.946;2023-11-18T09:12:05;16.30;;;6.90;;
31210;SDS011;17836;50.948;3.946;2023-11-18T09:14:33;12.90;;;6.35;;
31210;SDS011;17836;50.948;3.946;2023-11-18T09:17:01;13.02;;;6.97;;
31210;SDS011;17836;50.948;3.946;2023-11-18T09:19:27;11.00;;;6.95;;
31210;SDS011;17836;50.948;3.946;2023-11-18T09:21:52;6.93;;;5.45;;
31210;SDS011;17836;50.948;3.946;2023-11-18T09:24:21;7.32;;;5.93;;
31210;SDS011;17836;50.948;3.946;2023-11-18T09:26:49;16.40;;;6.93;;
31210;SDS011;17836;50.948;3.946;2023-11-18T09:29:15;11.38;;;7.10;;
31210;SDS011;17836;50.948;3.946;2023-11-18T09:31:43;10.35;;;7.63;;
31210;SDS011;17836;50.948;3.946;2023-11-18T09:34:13;13.77;;;7.00;;
31210;SDS011;17836;50.948;3.946;2023-11-18T09:36:40;18.13;;;8.23;;
31210;SDS011;17836;50.948;3.946;2023-11-18T09:39:08;13.40;;;6.47;;
31210;SDS011;17836;50.948;3.946;2023-11-18T09:41:34;11.50;;;6.70;;
31210;SDS011;17836;50.948;3.946;2023-11-18T09:44:00;7.53;;;5.30;;
31210;SDS011;17836;50.948;3.946;2023-11-18T09:46:27;8.80;;;6.13;;
31210;SDS011;17836;50.948;3.946;2023-11-18T09:51:39;10.65;;;6.07;;
31210;SDS011;17836;50.948;3.946;2023-11-18T09:54:34;8.32;;;5.80;;
31210;SDS011;17836;50.948;3.946;2023-11-18T10:02:23;6.13;;;5.13;;
31210;SDS011;17836;50.948;3.946;2023-11-18T10:04:49;7.15;;;5.20;;
31210;SDS011;17836;50.948;3.946;2023-11-18T10:07:23;12.90;;;5.63;;
31210;SDS011;17836;50.948;3.946;2023-11-18T10:09:52;6.68;;;5.35;;
31210;SDS011;17836;50.948;3.946;2023-11-18T10:12:22;9.73;;;6.00;;
31210;SDS011;17836;50.948;3.946;2023-11-18T10:14:49;6.82;;;5.00;;
31210;SDS011;17836;50.948;3.946;2023-11-18T10:17:17;11.45;;;6.28;;
31210;SDS011;17836;50.948;3.946;2023-11-18T10:19:52;8.57;;;5.35;;
31210;SDS011;17836;50.948;3.946;2023-11-18T10:22:29;5.50;;;4.70;;
31210;SDS011;17836;50.948;3.946;2023-11-18T10:24:57;10.73;;;4.63;;
31210;SDS011;17836;50.948;3.946;2023-11-18T10:29:48;9.27;;;5.65;;
31210;SDS011;17836;50.948;3.946;2023-11-18T10:32:14;5.63;;;4.90;;
31210;SDS011;17836;50.948;3.946;2023-11-18T10:34:46;8.38;;;4.35;;
31210;SDS011;17836;50.948;3.946;2023-11-18T10:37:12;6.25;;;4.10;;
31210;SDS011;17836;50.948;3.946;2023-11-18T10:39:37;5.23;;;3.80;;
31210;SDS011;17836;50.948;3.946;2023-11-18T10:42:02;5.83;;;3.90;;
31210;SDS011;17836;50.948;3.946;2023-11-18T10:44:28;8.43;;;4.97;;
31210;SDS011;17836;50.948;3.946;2023-11-18T10:46:55;8.43;;;6.35;;
31210;SDS011;17836;50.948;3.946;2023-11-18T10:49:27;9.43;;;6.03;;
31210;SDS011;17836;50.948;3.946;2023-11-18T10:51:52;5.75;;;3.95;;
31210;SDS011;17836;50.948;3.946;2023-11-18T10:54:18;7.20;;;3.40;;
31210;SDS011;17836;50.948;3.946;2023-11-18T10:56:50;5.70;;;3.67;;
31210;SDS011;17836;50.948;3.946;2023-11-18T10:59:16;3.97;;;2.92;;
31210;SDS011;17836;50.948;3.946;2023-11-18T11:01:41;3.50;;;2.85;;
31210;SDS011;17836;50.948;3.946;2023-11-18T11:04:14;6.10;;;3.45;;
31210;SDS011;17836;50.948;3.946;2023-11-18T11:06:46;5.93;;;3.30;;
31210;SDS011;17836;50.948;3.946;2023-11-18T11:09:17;6.03;;;3.63;;
31210;SDS011;17836;50.948;3.946;2023-11-18T11:11:53;7.90;;;3.33;;
31210;SDS011;17836;50.948;3.946;2023-11-18T11:14:20;5.72;;;3.15;;
31210;SDS011;17836;50.948;3.946;2023-11-18T11:16:47;6.47;;;2.80;;
31210;SDS011;17836;50.948;3.946;2023-11-18T11:21:52;5.32;;;3.53;;
31210;SDS011;17836;50.948;3.946;2023-11-18T11:24:23;4.82;;;2.90;;
31210;SDS011;17836;50.948;3.946;2023-11-18T11:27:05;4.93;;;2.90;;
31210;SDS011;17836;50.948;3.946;2023-11-18T11:29:36;4.10;;;2.63;;
31210;SDS011;17836;50.948;3.946;2023-11-18T11:32:15;4.85;;;2.45;;
31210;SDS011;17836;50.948;3.946;2023-11-18T11:34:50;4.88;;;2.75;;
31210;SDS011;17836;50.948;3.946;2023-11-18T11:37:19;3.28;;;2.67;;
31210;SDS011;17836;50.948;3.946;2023-11-18T11:39:44;4.82;;;2.50;;
31210;SDS011;17836;50.948;3.946;2023-11-18T11:42:12;3.60;;;1.70;;
31210;SDS011;17836;50.948;3.946;2023-11-18T11:44:39;4.28;;;1.83;;
31210;SDS011;17836;50.948;3.946;2023-11-18T11:47:07;2.95;;;2.17;;
31210;SDS011;17836;50.948;3.946;2023-11-18T11:49:37;3.42;;;2.22;;
31210;SDS011;17836;50.948;3.946;2023-11-18T11:52:10;3.92;;;2.13;;
31210;SDS011;17836;50.948;3.946;2023-11-18T11:54:46;5.32;;;4.28;;
31210;SDS011;17836;50.948;3.946;2023-11-18T11:57:15;3.10;;;1.85;;
31210;SDS011;17836;50.948;3.946;2023-11-18T12:02:12;5.47;;;3.25;;
31210;SDS011;17836;50.948;3.946;2023-11-18T12:04:44;5.13;;;4.10;;
31210;SDS011;17836;50.948;3.946;2023-11-18T12:07:09;3.97;;;3.05;;
31210;SDS011;17836;50.948;3.946;2023-11-18T12:09:38;3.97;;;2.13;;
31210;SDS011;17836;50.948;3.946;2023-11-18T12:12:13;1.80;;;1.48;;
31210;SDS011;17836;50.948;3.946;2023-11-18T12:14:51;2.70;;;1.92;;
31210;SDS011;17836;50.948;3.946;2023-11-18T12:17:17;2.42;;;1.98;;
31210;SDS011;17836;50.948;3.946;2023-11-18T12:19:56;2.90;;;2.22;;
31210;SDS011;17836;50.948;3.946;2023-11-18T12:22:23;1.60;;;1.38;;
31210;SDS011;17836;50.948;3.946;2023-11-18T12:35:23;2.88;;;1.48;;
31210;SDS011;17836;50.948;3.946;2023-11-18T12:43:11;3.72;;;1.52;;
31210;SDS011;17836;50.948;3.946;2023-11-18T12:46:05;1.13;;;1.02;;
31210;SDS011;17836;50.948;3.946;2023-11-18T12:48:42;1.67;;;1.15;;
31210;SDS011;17836;50.948;3.946;2023-11-18T12:51:08;3.15;;;1.42;;
31210;SDS011;17836;50.948;3.946;2023-11-18T12:53:44;1.35;;;1.23;;
31210;SDS011;17836;50.948;3.946;2023-11-18T12:56:09;2.20;;;1.50;;
31210;SDS011;17836;50.948;3.946;2023-11-18T12:58:38;1.58;;;1.17;;
31210;SDS011;17836;50.948;3.946;2023-11-18T13:01:06;7.20;;;3.03;;
31210;SDS011;17836;50.948;3.946;2023-11-18T13:03:31;1.03;;;0.90;;
31210;SDS011;17836;50.948;3.946;2023-11-18T13:05:57;1.20;;;0.90;;
31210;SDS011;17836;50.948;3.946;2023-11-18T13:08:22;1.92;;;1.40;;
31210;SDS011;17836;50.948;3.946;2023-11-18T13:10:50;4.63;;;2.25;;
31210;SDS011;17836;50.948;3.946;2023-11-18T13:13:15;1.90;;;1.15;;
31210;SDS011;17836;50.948;3.946;2023-11-18T13:15:44;4.18;;;1.67;;
31210;SDS011;17836;50.948;3.946;2023-11-18T13:18:10;1.30;;;1.20;;
31210;SDS011;17836;50.948;3.946;2023-11-18T13:20:36;1.20;;;1.10;;
31210;SDS011;17836;50.948;3.946;2023-11-18T13:23:02;0.98;;;0.85;;
31210;SDS011;17836;50.948;3.946;2023-11-18T13:25:34;1.05;;;0.85;;
31210;SDS011;17836;50.948;3.946;2023-11-18T13:27:59;2.25;;;0.80;;
31210;SDS011;17836;50.948;3.946;2023-11-18T13:30:27;1.05;;;0.90;;
31210;SDS011;17836;50.948;3.946;2023-11-18T13:32:54;0.82;;;0.70;;
31210;SDS011;17836;50.948;3.946;2023-11-18T13:35:19;0.60;;;0.60;;
31210;SDS011;17836;50.948;3.946;2023-11-18T13:37:48;0.60;;;0.60;;
31210;SDS011;17836;50.948;3.946;2023-11-18T13:40:14;1.20;;;1.10;;
31210;SDS011;17836;50.948;3.946;2023-11-18T13:42:43;0.93;;;0.90;;
31210;SDS011;17836;50.948;3.946;2023-11-18T13:45:09;1.17;;;0.63;;
31210;SDS011;17836;50.948;3.946;2023-11-18T13:47:37;1.85;;;1.17;;
31210;SDS011;17836;50.948;3.946;2023-11-18T13:50:06;1.35;;;1.13;;
31210;SDS011;17836;50.948;3.946;2023-11-18T13:52:32;1.38;;;0.88;;
31210;SDS011;17836;50.948;3.946;2023-11-18T13:54:58;1.73;;;1.40;;
31210;SDS011;17836;50.948;3.946;2023-11-18T13:57:24;3.13;;;1.00;;
31210;SDS011;17836;50.948;3.946;2023-11-18T13:59:50;0.75;;;0.70;;
31210;SDS011;17836;50.948;3.946;2023-11-18T14:02:15;2.20;;;1.35;;
31210;SDS011;17836;50.948;3.946;2023-11-18T14:04:41;1.63;;;1.35;;
31210;SDS011;17836;50.948;3.946;2023-11-18T14:07:08;2.58;;;1.10;;
31210;SDS011;17836;50.948;3.946;2023-11-18T14:09:34;1.55;;;1.42;;
31210;SDS011;17836;50.948;3.946;2023-11-18T14:12:09;1.20;;;1.10;;
31210;SDS011;17836;50.948;3.946;2023-11-18T14:14:34;1.23;;;0.93;;
31210;SDS011;17836;50.948;3.946;2023-11-18T14:17:00;0.73;;;0.68;;
31210;SDS011;17836;50.948;3.946;2023-11-18T14:19:26;0.80;;;0.80;;
31210;SDS011;17836;50.948;3.946;2023-11-18T14:21:52;1.80;;;1.10;;
31210;SDS011;17836;50.948;3.946;2023-11-18T14:24:18;1.17;;;1.00;;
31210;SDS011;17836;50.948;3.946;2023-11-18T14:26:43;1.63;;;1.33;;
31210;SDS011;17836;50.948;3.946;2023-11-18T14:29:09;1.60;;;1.30;;
31210;SDS011;17836;50.948;3.946;2023-11-18T14:31:34;1.40;;;1.08;;
31210;SDS011;17836;50.948;3.946;2023-11-18T14:33:59;1.00;;;0.90;;
31210;SDS011;17836;50.948;3.946;2023-11-18T14:36:28;2.00;;;1.02;;
31210;SDS011;17836;50.948;3.946;2023-11-18T14:38:53;1.15;;;0.80;;
31210;SDS011;17836;50.948;3.946;2023-11-18T14:41:19;1.30;;;1.20;;
31210;SDS011;17836;50.948;3.946;2023-11-18T14:43:45;0.57;;;0.57;;
31210;SDS011;17836;50.948;3.946;2023-11-18T14:46:10;0.70;;;0.70;;
31210;SDS011;17836;50.948;3.946;2023-11-18T14:48:36;1.53;;;0.77;;
31210;SDS011;17836;50.948;3.946;2023-11-18T14:51:01;0.70;;;0.70;;
31210;SDS011;17836;50.948;3.946;2023-11-18T14:53:26;0.98;;;0.88;;
31210;SDS011;17836;50.948;3.946;2023-11-18T14:55:52;1.77;;;0.90;;
31210;SDS011;17836;50.948;3.946;2023-11-18T14:58:17;0.80;;;0.80;;
31210;SDS011;17836;50.948;3.946;2023-11-18T15:00:42;1.13;;;1.00;;
31210;SDS011;17836;50.948;3.946;2023-11-18T15:03:08;1.88;;;1.45;;
31210;SDS011;17836;50.948;3.946;2023-11-18T15:05:33;1.33;;;1.20;;
31210;SDS011;17836;50.948;3.946;2023-11-18T15:07:59;1.33;;;1.23;;
31210;SDS011;17836;50.948;3.946;2023-11-18T15:10:26;1.65;;;1.40;;
31210;SDS011;17836;50.948;3.946;2023-11-18T15:12:52;1.65;;;1.40;;
31210;SDS011;17836;50.948;3.946;2023-11-18T15:15:28;1.58;;;1.40;;
31210;SDS011;17836;50.948;3.946;2023-11-18T15:17:56;1.20;;;1.10;;
31210;SDS011;17836;50.948;3.946;2023-11-18T15:20:22;1.15;;;1.05;;
31210;SDS011;17836;50.948;3.946;2023-11-18T15:22:48;1.50;;;1.27;;
31210;SDS011;17836;50.948;3.946;2023-11-18T15:25:16;2.20;;;1.23;;
31210;SDS011;17836;50.948;3.946;2023-11-18T15:27:45;1.40;;;1.30;;
31210;SDS011;17836;50.948;3.946;2023-11-18T15:30:11;2.95;;;2.00;;
31210;SDS011;17836;50.948;3.946;2023-11-18T15:32:43;1.42;;;1.33;;
31210;SDS011;17836;50.948;3.946;2023-11-18T15:35:09;4.18;;;2.17;;
31210;SDS011;17836;50.948;3.946;2023-11-18T15:37:41;1.70;;;1.48;;
31210;SDS011;17836;50.948;3.946;2023-11-18T15:40:07;2.63;;;2.42;;
31210;SDS011;17836;50.948;3.946;2023-11-18T15:42:38;2.20;;;2.00;;
31210;SDS011;17836;50.948;3.946;2023-11-18T15:45:04;2.17;;;1.98;;
31210;SDS011;17836;50.948;3.946;2023-11-18T15:47:33;4.20;;;3.80;;
31210;SDS011;17836;50.948;3.946;2023-11-18T15:50:01;2.97;;;2.50;;
31210;SDS011;17836;50.948;3.946;2023-11-18T15:52:26;2.92;;;2.58;;
31210;SDS011;17836;50.948;3.946;2023-11-18T15:54:53;2.30;;;2.10;;
31210;SDS011;17836;50.948;3.946;2023-11-18T15:57:19;3.13;;;2.37;;
31210;SDS011;17836;50.948;3.946;2023-11-18T15:59:46;2.40;;;2.20;;
31210;SDS011;17836;50.948;3.946;2023-11-18T16:02:11;2.42;;;2.22;;
31210;SDS011;17836;50.948;3.946;2023-11-18T16:04:37;3.35;;;2.45;;